This is the latest recevied weather packets stored in our database for station/object AA5AW. If no packets are shown the sender has not sent any weather packets the latest 10 day(s).
| Time | Temp. | Humidity | Pressure | Rain* | Wind** | Luminosity | Snow |
|---|---|---|---|---|---|---|---|
| 1778179543 | 20.56° C | 64% | 1017.9 hPa | 0 mm | - | 480 W/m² | - |
| 1778178633 | 21.11° C | 65% | 1017.9 hPa | 0 mm | - | 483 W/m² | - |
| 1778175053 | 20.56° C | 65% | 1018.2 hPa | 0 mm | - | 496 W/m² | - |
| 1778166050 | 16.67° C | 72% | 1019.5 hPa | 0 mm | - | 339 W/m² | - |
| 1778165132 | 16.11° C | 74% | 1019.3 hPa | 0 mm | - | 197 W/m² | - |
| 1778142641 | 13.89° C | 91% | 1016.2 hPa | 0 mm | - | 0 W/m² | - |
| 1778140821 | 13.89° C | 91% | 1016.2 hPa | 0 mm | - | 0 W/m² | - |
| 1778138157 | 14.44° C | 91% | 1016.5 hPa | 0 mm | - | 0 W/m² | - |
| 1778137257 | 15° C | 91% | 1016.3 hPa | 0 mm | - | 0 W/m² | - |
| 1778135427 | 15° C | 90% | 1016.5 hPa | 0 mm | - | 0 W/m² | - |
| 1778130922 | 15.56° C | 90% | 1016.3 hPa | 0 mm | - | 0 W/m² | - |
| 1778124653 | 17.78° C | 89% | 1015 hPa | 0 mm | - | 0 W/m² | - |
| 1778123751 | 17.78° C | 89% | 1014.5 hPa | 0 mm | - | 0 W/m² | - |
| 1778120120 | 18.89° C | 88% | 1013.7 hPa | 0 mm | - | 0 W/m² | - |
| 1778113827 | 21.11° C | 86% | 1011.7 hPa | 0 mm | - | 9 W/m² | - |
| 1778093117 | 27.22° C | 83% | 1010.9 hPa | 0 mm | - | 425 W/m² | - |
| 1778089506 | 26.11° C | 85% | 1012.4 hPa | 0 mm | - | 211 W/m² | - |
| 1778081459 | 25° C | 89% | 1012.1 hPa | 0 mm | - | 130 W/m² | - |
| 1778075146 | 24.44° C | 90% | 1011.4 hPa | 0 mm | - | 98 W/m² | - |
| 1778071533 | 23.33° C | 95% | 1011.2 hPa | 0 mm | - | 130 W/m² | - |
| 1778070609 | 22.78° C | 96% | 1011.1 hPa | 0 mm | - | 69 W/m² | - |
| 1778068849 | 22.22° C | 96% | 1010.8 hPa | 0 mm | - | 25 W/m² | - |
| 1778065205 | 22.22° C | 95% | 1010.1 hPa | 0 mm | - | 0 W/m² | - |
| 1778058943 | 22.78° C | 94% | 1009.9 hPa | 0 mm | - | 0 W/m² | - |
| 1778056216 | 23.33° C | 93% | 1010 hPa | 0 mm | - | 0 W/m² | - |
* Rain latest hour (hover to see other rain measurements)
** Current wind speed in m/s (hover to see current wind gust speed)